createdAt,value
2022-10-24T00:00:17.135Z,2.55
2022-10-24T00:02:44.413Z,2.42
2022-10-24T00:05:14.775Z,2.75
2022-10-24T00:07:42.636Z,2.92
2022-10-24T00:10:12.344Z,3.00
2022-10-24T00:12:39.693Z,3.00
2022-10-24T00:15:07.164Z,2.85
2022-10-24T00:17:34.635Z,2.80
2022-10-24T00:20:01.913Z,3.35
2022-10-24T00:22:29.127Z,3.00
2022-10-24T00:24:56.297Z,2.83
2022-10-24T00:27:23.496Z,2.70
2022-10-24T00:29:50.692Z,2.67
2022-10-24T00:32:18.205Z,2.35
2022-10-24T00:34:45.359Z,2.60
2022-10-24T00:37:12.605Z,2.83
2022-10-24T00:39:40.017Z,2.75
2022-10-24T00:42:07.308Z,2.70
2022-10-24T00:44:38.436Z,2.80
2022-10-24T00:47:08.559Z,2.90
2022-10-24T00:49:44.795Z,1.95
2022-10-24T00:52:12.617Z,2.50
2022-10-24T00:54:40.900Z,2.80
2022-10-24T00:57:11.243Z,2.22
2022-10-24T00:59:41.447Z,2.15
2022-10-24T01:02:08.917Z,2.30
2022-10-24T01:04:36.108Z,2.75
2022-10-24T01:07:06.088Z,2.45
2022-10-24T01:09:40.280Z,2.45
2022-10-24T01:12:16.695Z,2.33
2022-10-24T01:14:46.619Z,2.47
2022-10-24T01:17:20.454Z,2.28
2022-10-24T01:19:53.633Z,2.03
2022-10-24T01:22:23.114Z,2.65
2022-10-24T01:25:15.240Z,2.20
2022-10-24T01:27:53.001Z,2.45
2022-10-24T01:30:20.385Z,3.00
2022-10-24T01:32:50.929Z,2.58
2022-10-24T01:35:21.286Z,2.50
2022-10-24T01:37:52.263Z,2.85
2022-10-24T01:40:22.441Z,2.90
2022-10-24T01:42:50.931Z,2.75
2022-10-24T01:45:21.880Z,3.28
2022-10-24T01:47:50.985Z,2.97
2022-10-24T01:50:19.861Z,3.00
2022-10-24T01:52:47.868Z,3.25
2022-10-24T01:55:15.313Z,3.60
2022-10-24T01:57:42.905Z,3.67
2022-10-24T02:00:16.333Z,3.58
2022-10-24T02:02:45.840Z,3.10
2022-10-24T02:05:17.026Z,3.38
2022-10-24T02:07:46.660Z,3.47
2022-10-24T02:10:34.040Z,3.03
2022-10-24T02:13:03.701Z,3.35
2022-10-24T02:15:34.077Z,3.25
2022-10-24T02:18:01.408Z,3.35
2022-10-24T02:20:31.660Z,2.97
2022-10-24T02:23:02.013Z,2.80
2022-10-24T02:25:33.722Z,3.05
2022-10-24T02:28:05.716Z,2.97
2022-10-24T02:30:34.156Z,2.70
2022-10-24T02:33:01.845Z,2.85
2022-10-24T02:35:33.235Z,3.03
2022-10-24T02:38:23.616Z,2.80
2022-10-24T02:40:52.441Z,4.15
2022-10-24T02:43:21.928Z,3.38
2022-10-24T02:45:50.051Z,2.75
2022-10-24T02:48:19.603Z,3.15
2022-10-24T02:50:47.094Z,2.72
2022-10-24T02:53:14.960Z,2.92
2022-10-24T02:55:42.241Z,2.42
2022-10-24T02:58:09.415Z,2.63
2022-10-24T03:00:36.652Z,2.83
2022-10-24T03:03:03.883Z,3.80
2022-10-24T03:05:31.009Z,3.55
2022-10-24T03:07:58.152Z,3.05
2022-10-24T03:10:25.297Z,2.83
2022-10-24T03:12:52.440Z,3.47
2022-10-24T03:15:19.631Z,3.35
2022-10-24T03:17:49.190Z,2.72
2022-10-24T03:20:17.280Z,2.80
2022-10-24T03:22:44.405Z,2.78
2022-10-24T03:25:11.944Z,2.63
2022-10-24T03:27:39.192Z,3.00
2022-10-24T03:30:06.750Z,2.28
2022-10-24T03:32:34.502Z,3.05
2022-10-24T03:35:02.045Z,3.13
2022-10-24T03:37:29.736Z,2.83
2022-10-24T03:39:56.937Z,2.70
2022-10-24T03:42:24.073Z,3.00
2022-10-24T03:44:51.223Z,2.65
2022-10-24T03:47:19.610Z,3.40
2022-10-24T03:49:46.733Z,4.10
2022-10-24T03:52:14.005Z,2.88
2022-10-24T03:54:41.144Z,3.97
2022-10-24T03:57:10.012Z,3.47
2022-10-24T03:59:37.648Z,3.10
2022-10-24T04:02:05.840Z,3.85
2022-10-24T04:04:33.366Z,3.38
2022-10-24T04:07:00.655Z,3.75
2022-10-24T04:09:28.525Z,3.30
2022-10-24T04:11:55.722Z,3.10
2022-10-24T04:14:22.957Z,3.10
2022-10-24T04:16:50.280Z,3.35
2022-10-24T04:19:18.323Z,3.03
2022-10-24T04:21:47.946Z,3.30
2022-10-24T04:24:15.238Z,3.45
2022-10-24T04:26:42.523Z,2.95
2022-10-24T04:29:09.765Z,3.20
2022-10-24T04:31:36.909Z,3.42
2022-10-24T04:34:05.588Z,3.03
2022-10-24T04:36:33.700Z,2.97
2022-10-24T04:41:33.024Z,3.83
2022-10-24T04:44:00.173Z,3.25
2022-10-24T04:46:27.333Z,2.67
2022-10-24T04:48:54.594Z,3.47
2022-10-24T04:51:22.674Z,2.28
2022-10-24T04:53:50.345Z,2.78
2022-10-24T04:56:18.632Z,3.42
2022-10-24T04:58:45.815Z,3.15
2022-10-24T05:01:13.060Z,3.00
2022-10-24T05:03:40.236Z,3.30
2022-10-24T05:06:07.469Z,2.30
2022-10-24T05:08:34.737Z,2.80
2022-10-24T05:11:01.870Z,2.20
2022-10-24T05:13:31.753Z,3.47
2022-10-24T05:16:01.690Z,2.33
2022-10-24T05:18:28.880Z,2.85
2022-10-24T05:20:59.954Z,2.72
2022-10-24T05:23:27.217Z,2.60
2022-10-24T05:25:54.686Z,2.45
2022-10-24T05:28:21.839Z,2.35
2022-10-24T05:30:49.006Z,2.85
2022-10-24T05:33:16.132Z,2.30
2022-10-24T05:35:43.452Z,2.38
2022-10-24T05:38:10.600Z,2.25
2022-10-24T05:40:37.759Z,2.47
2022-10-24T05:43:04.907Z,2.58
2022-10-24T05:45:32.094Z,2.60
2022-10-24T05:47:59.350Z,2.50
2022-10-24T05:50:27.151Z,2.60
2022-10-24T05:52:54.376Z,2.20
2022-10-24T05:55:21.566Z,2.05
2022-10-24T05:57:48.906Z,2.47
2022-10-24T06:00:17.054Z,2.30
2022-10-24T06:02:44.608Z,2.00
2022-10-24T06:05:11.937Z,2.65
2022-10-24T06:07:39.182Z,2.13
2022-10-24T06:10:07.134Z,2.53
2022-10-24T06:12:36.297Z,1.90
2022-10-24T06:15:04.821Z,2.90
2022-10-24T06:17:32.029Z,2.20
2022-10-24T06:19:59.178Z,2.38
2022-10-24T06:22:27.807Z,2.10
2022-10-24T06:24:55.058Z,2.35
2022-10-24T06:27:22.194Z,2.47
2022-10-24T06:29:49.344Z,2.67
2022-10-24T06:32:16.586Z,1.98
2022-10-24T06:34:43.717Z,2.15
2022-10-24T06:37:10.926Z,2.25
2022-10-24T06:39:38.077Z,2.50
2022-10-24T06:42:05.236Z,2.13
2022-10-24T06:44:32.559Z,2.25
2022-10-24T06:46:59.756Z,2.60
2022-10-24T06:49:26.941Z,1.90
2022-10-24T06:51:54.142Z,2.40
2022-10-24T06:54:22.430Z,2.38
2022-10-24T06:56:51.317Z,2.10
2022-10-24T06:59:18.977Z,2.55
2022-10-24T07:01:46.660Z,2.50
2022-10-24T07:04:14.030Z,1.92
2022-10-24T07:06:41.231Z,2.33
2022-10-24T07:09:11.481Z,2.05
2022-10-24T07:11:41.617Z,2.50
2022-10-24T07:14:09.530Z,2.38
2022-10-24T07:16:37.045Z,2.05
2022-10-24T07:19:04.628Z,2.67
2022-10-24T07:21:32.717Z,2.00
2022-10-24T07:24:00.301Z,1.95
2022-10-24T07:26:28.366Z,2.30
2022-10-24T07:28:56.783Z,2.63
2022-10-24T07:31:25.769Z,2.55
2022-10-24T07:33:54.383Z,1.88
2022-10-24T07:36:22.960Z,2.13
2022-10-24T07:38:51.282Z,2.28
2022-10-24T07:41:19.059Z,1.80
2022-10-24T07:43:46.909Z,2.15
2022-10-24T07:46:14.941Z,1.88
2022-10-24T07:48:42.770Z,1.75
2022-10-24T07:51:11.493Z,2.13
2022-10-24T07:53:39.730Z,1.92
2022-10-24T07:56:09.820Z,2.13
2022-10-24T07:58:37.756Z,2.00
2022-10-24T08:01:06.543Z,1.80
2022-10-24T08:03:33.917Z,1.92
2022-10-24T08:06:01.662Z,1.50
2022-10-24T08:08:36.207Z,1.90
2022-10-24T08:11:11.413Z,1.75
2022-10-24T08:13:38.608Z,2.05
2022-10-24T08:16:07.063Z,1.73
2022-10-24T08:18:38.693Z,1.88
2022-10-24T08:21:08.907Z,1.63
2022-10-24T08:23:37.989Z,2.00
2022-10-24T08:26:09.152Z,1.80
2022-10-24T08:28:36.455Z,1.65
2022-10-24T08:31:08.775Z,1.52
2022-10-24T08:33:36.235Z,1.67
2022-10-24T08:36:07.940Z,2.33
2022-10-24T08:38:35.132Z,1.90
2022-10-24T08:41:02.354Z,2.08
2022-10-24T08:43:30.266Z,1.65
2022-10-24T08:46:15.984Z,1.75
2022-10-24T08:48:46.237Z,1.75
2022-10-24T08:51:36.236Z,1.83
2022-10-24T08:54:04.709Z,1.80
2022-10-24T08:56:34.025Z,1.48
2022-10-24T08:59:02.728Z,2.20
2022-10-24T09:01:51.541Z,1.63
2022-10-24T09:04:20.845Z,2.40
2022-10-24T09:06:48.714Z,2.05
2022-10-24T09:09:15.899Z,1.63
2022-10-24T09:12:02.113Z,2.05
2022-10-24T09:14:33.865Z,1.80
2022-10-24T09:17:03.028Z,1.83
2022-10-24T09:19:31.564Z,1.67
2022-10-24T09:21:59.912Z,1.55
2022-10-24T09:24:33.297Z,1.88
2022-10-24T09:27:04.351Z,2.03
2022-10-24T09:29:32.437Z,1.80
2022-10-24T09:31:59.820Z,1.77
2022-10-24T09:34:27.125Z,1.50
2022-10-24T09:36:54.261Z,1.42
2022-10-24T09:39:26.634Z,1.85
2022-10-24T09:41:54.154Z,1.95
2022-10-24T09:44:44.455Z,1.65
2022-10-24T09:47:25.256Z,2.00
2022-10-24T09:49:52.392Z,1.70
2022-10-24T09:52:21.225Z,2.20
2022-10-24T09:55:03.816Z,1.58
2022-10-24T09:57:39.862Z,1.50
2022-10-24T10:00:08.135Z,1.85
2022-10-24T10:02:36.557Z,2.20
2022-10-24T10:05:03.811Z,1.42
2022-10-24T10:07:30.954Z,1.70
2022-10-24T10:10:03.116Z,1.48
2022-10-24T10:12:34.606Z,1.85
2022-10-24T10:15:02.619Z,1.55
2022-10-24T10:17:33.518Z,1.58
2022-10-24T10:20:00.729Z,1.50
2022-10-24T10:22:29.692Z,1.42
2022-10-24T10:24:57.209Z,1.73
2022-10-24T10:27:35.383Z,1.00
2022-10-24T10:30:17.643Z,1.48
2022-10-24T10:33:03.540Z,1.63
2022-10-24T10:38:04.586Z,1.33
2022-10-24T10:40:38.486Z,2.25
2022-10-24T10:43:15.469Z,2.53
2022-10-24T10:45:46.849Z,2.00
2022-10-24T10:48:33.038Z,2.47
2022-10-24T10:51:08.156Z,1.80
2022-10-24T10:53:39.005Z,1.50
2022-10-24T10:56:09.273Z,1.63
2022-10-24T10:58:44.629Z,1.80
2022-10-24T11:03:58.830Z,1.38
2022-10-24T11:06:26.614Z,1.10
2022-10-24T11:08:57.908Z,2.63
2022-10-24T11:11:28.039Z,1.23
2022-10-24T11:14:09.233Z,1.95
2022-10-24T11:16:36.600Z,1.55
2022-10-24T11:19:10.223Z,0.80
2022-10-24T11:21:39.868Z,1.30
2022-10-24T11:24:19.314Z,1.55
2022-10-24T11:26:46.589Z,1.10
2022-10-24T11:29:25.328Z,1.42
2022-10-24T11:32:06.401Z,1.42
2022-10-24T11:34:40.929Z,1.42
2022-10-24T11:37:14.105Z,1.38
2022-10-24T11:39:50.154Z,1.20
2022-10-24T11:42:20.418Z,1.38
2022-10-24T11:44:53.655Z,1.30
2022-10-24T11:47:20.763Z,1.33
2022-10-24T11:49:50.695Z,1.20
2022-10-24T11:52:28.437Z,1.45
2022-10-24T11:55:00.396Z,1.13
2022-10-24T11:57:29.285Z,1.50
2022-10-24T11:59:57.901Z,1.33
2022-10-24T12:02:37.102Z,1.75
2022-10-24T12:05:30.792Z,1.50
2022-10-24T12:07:58.511Z,1.10
2022-10-24T12:10:34.926Z,1.40
2022-10-24T12:13:11.171Z,1.35
2022-10-24T12:15:42.477Z,1.02
2022-10-24T12:18:12.682Z,1.17
2022-10-24T12:20:40.678Z,1.67
2022-10-24T12:23:08.413Z,1.20
2022-10-24T12:25:39.004Z,0.95
2022-10-24T12:28:12.279Z,0.95
2022-10-24T12:30:39.572Z,1.23
2022-10-24T12:33:25.474Z,1.60
2022-10-24T12:35:56.479Z,1.10
2022-10-24T12:38:29.502Z,1.02
2022-10-24T12:41:05.792Z,0.98
2022-10-24T12:43:32.988Z,1.05
2022-10-24T12:46:23.473Z,1.30
2022-10-24T12:48:59.706Z,1.30
2022-10-24T12:51:27.540Z,1.30
2022-10-24T12:54:12.697Z,1.27
2022-10-24T12:56:52.228Z,1.45
2022-10-24T12:59:19.366Z,1.02
2022-10-24T13:01:47.477Z,1.38
2022-10-24T13:04:30.021Z,1.00
2022-10-24T13:07:09.648Z,1.40
2022-10-24T13:09:57.050Z,1.40
2022-10-24T13:12:43.191Z,2.15
2022-10-24T13:15:29.345Z,1.02
2022-10-24T13:18:05.954Z,1.10
2022-10-24T13:20:46.194Z,1.23
2022-10-24T13:23:15.704Z,1.50
2022-10-24T13:25:43.216Z,1.45
2022-10-24T13:28:23.237Z,1.45
2022-10-24T13:30:53.566Z,1.05
2022-10-24T13:33:40.781Z,1.20
2022-10-24T13:36:08.076Z,1.10
2022-10-24T13:38:41.728Z,0.85
2022-10-24T13:41:11.617Z,1.20
2022-10-24T13:43:49.973Z,1.08
2022-10-24T13:46:26.250Z,1.13
2022-10-24T13:48:53.916Z,1.35
2022-10-24T13:51:24.505Z,1.77
2022-10-24T13:53:51.681Z,0.93
2022-10-24T13:56:18.919Z,1.48
2022-10-24T13:58:46.609Z,1.23
2022-10-24T14:01:16.606Z,0.93
2022-10-24T14:03:44.338Z,1.17
2022-10-24T14:06:12.065Z,1.10
2022-10-24T14:08:57.466Z,1.30
2022-10-24T14:11:30.270Z,1.23
2022-10-24T14:14:05.613Z,1.60
2022-10-24T14:16:34.843Z,1.08
2022-10-24T14:19:14.053Z,0.90
2022-10-24T14:21:48.960Z,1.58
2022-10-24T14:24:17.345Z,1.35
2022-10-24T14:26:47.948Z,1.55
2022-10-24T14:29:27.681Z,1.13
2022-10-24T14:31:59.430Z,1.20
2022-10-24T14:34:26.699Z,0.80
2022-10-24T14:36:55.913Z,0.85
2022-10-24T14:39:26.740Z,0.93
2022-10-24T14:41:54.801Z,1.20
2022-10-24T14:44:23.117Z,1.40
2022-10-24T14:47:07.098Z,1.27
2022-10-24T14:49:37.145Z,1.15
2022-10-24T14:52:10.184Z,1.20
2022-10-24T14:54:37.863Z,1.40
2022-10-24T14:57:10.209Z,1.45
2022-10-24T14:59:39.570Z,1.15
2022-10-24T15:02:21.016Z,1.40
2022-10-24T15:04:48.589Z,1.73
2022-10-24T15:07:29.932Z,1.30
2022-10-24T15:10:01.846Z,1.00
2022-10-24T15:12:32.693Z,1.33
2022-10-24T15:15:00.481Z,1.33
2022-10-24T15:17:32.391Z,1.27
2022-10-24T15:20:03.474Z,1.45
2022-10-24T15:22:38.639Z,1.40
2022-10-24T15:25:18.870Z,1.55
2022-10-24T15:27:46.653Z,1.52
2022-10-24T15:30:15.957Z,1.88
2022-10-24T15:32:43.761Z,2.15
2022-10-24T15:35:11.408Z,1.17
2022-10-24T15:37:38.622Z,1.80
2022-10-24T15:40:08.232Z,1.70
2022-10-24T15:42:35.466Z,1.42
2022-10-24T15:45:02.651Z,1.45
2022-10-24T15:47:30.433Z,1.70
2022-10-24T15:49:57.566Z,1.55
2022-10-24T15:52:24.726Z,1.70
2022-10-24T15:54:55.085Z,1.30
2022-10-24T15:57:22.283Z,1.40
2022-10-24T15:59:49.546Z,1.80
2022-10-24T16:02:18.629Z,2.13
2022-10-24T16:04:45.930Z,1.95
2022-10-24T16:07:13.072Z,1.60
2022-10-24T16:09:40.371Z,1.98
2022-10-24T16:12:07.937Z,1.98
2022-10-24T16:14:35.202Z,1.63
2022-10-24T16:17:02.390Z,1.80
2022-10-24T16:19:29.934Z,1.73
2022-10-24T16:22:01.521Z,1.48
2022-10-24T16:24:29.180Z,1.63
2022-10-24T16:26:56.401Z,1.80
2022-10-24T16:29:23.590Z,1.40
2022-10-24T16:31:50.816Z,1.67
2022-10-24T16:34:18.074Z,1.50
2022-10-24T16:36:45.392Z,2.35
2022-10-24T16:39:14.448Z,1.73
2022-10-24T16:41:46.128Z,2.05
2022-10-24T16:44:14.262Z,2.35
2022-10-24T16:46:41.547Z,2.30
2022-10-24T16:49:08.854Z,2.15
2022-10-24T16:51:38.295Z,2.45
2022-10-24T16:54:07.864Z,2.40
2022-10-24T16:56:35.142Z,1.92
2022-10-24T16:59:02.382Z,2.00
2022-10-24T17:01:29.627Z,2.17
2022-10-24T17:03:56.964Z,2.53
2022-10-24T17:06:24.146Z,2.63
2022-10-24T17:08:52.504Z,2.88
2022-10-24T17:11:43.826Z,2.65
2022-10-24T17:16:35.480Z,3.22
2022-10-24T17:19:15.616Z,2.67
2022-10-24T17:21:44.410Z,3.88
2022-10-24T17:24:12.136Z,2.88
2022-10-24T17:26:39.464Z,3.28
2022-10-24T17:29:08.222Z,3.55
2022-10-24T17:31:35.845Z,3.17
2022-10-24T17:34:03.274Z,2.72
2022-10-24T17:36:35.541Z,3.85
2022-10-24T17:39:18.754Z,4.13
2022-10-24T17:41:46.026Z,3.65
2022-10-24T17:44:15.884Z,4.70
2022-10-24T17:46:43.297Z,3.60
2022-10-24T17:49:11.293Z,3.67
2022-10-24T17:51:41.048Z,3.30
2022-10-24T17:54:09.284Z,3.38
2022-10-24T17:56:36.496Z,3.60
2022-10-24T17:59:03.687Z,3.38
2022-10-24T18:01:31.017Z,3.58
2022-10-24T18:03:58.304Z,3.08
2022-10-24T18:06:25.618Z,4.30
2022-10-24T18:08:56.284Z,3.22
2022-10-24T18:11:23.437Z,3.33
2022-10-24T18:13:50.595Z,3.58
2022-10-24T18:16:18.757Z,4.20
2022-10-24T18:18:46.649Z,3.60
2022-10-24T18:21:15.906Z,3.58
2022-10-24T18:23:43.226Z,3.83
2022-10-24T18:26:11.649Z,3.70
2022-10-24T18:28:39.436Z,3.83
2022-10-24T18:31:07.935Z,3.97
2022-10-24T18:33:35.097Z,4.43
2022-10-24T18:36:12.817Z,3.80
2022-10-24T18:38:40.552Z,3.63
2022-10-24T18:41:39.949Z,4.38
2022-10-24T18:44:22.925Z,3.95
2022-10-24T18:46:51.360Z,4.57
2022-10-24T18:49:18.913Z,4.70
2022-10-24T18:51:53.860Z,4.70
2022-10-24T18:54:21.927Z,4.72
2022-10-24T18:56:49.502Z,4.53
2022-10-24T18:59:18.031Z,4.88
2022-10-24T19:01:48.450Z,4.57
2022-10-24T19:04:23.501Z,4.40
2022-10-24T19:06:51.983Z,4.25
2022-10-24T19:09:20.633Z,4.68
2022-10-24T19:11:48.912Z,4.90
2022-10-24T19:14:16.517Z,5.30
2022-10-24T19:16:45.882Z,5.10
2022-10-24T19:19:14.735Z,4.82
2022-10-24T19:21:43.487Z,4.55
2022-10-24T19:24:12.557Z,4.57
2022-10-24T19:26:39.781Z,4.35
2022-10-24T19:29:07.039Z,3.80
2022-10-24T19:31:34.164Z,3.28
2022-10-24T19:34:01.311Z,3.92
2022-10-24T19:36:28.477Z,3.58
2022-10-24T19:38:56.578Z,3.45
2022-10-24T19:41:24.136Z,2.80
2022-10-24T19:43:51.266Z,4.00
2022-10-24T19:46:20.131Z,2.92
2022-10-24T19:48:53.108Z,3.28
2022-10-24T19:51:20.630Z,2.28
2022-10-24T19:53:49.559Z,3.78
2022-10-24T19:56:23.896Z,3.00
2022-10-24T20:01:20.993Z,3.58
2022-10-24T20:03:49.150Z,2.65
2022-10-24T20:06:16.763Z,2.83
2022-10-24T20:08:44.018Z,3.03
2022-10-24T20:11:11.294Z,2.88
2022-10-24T20:13:38.505Z,2.50
2022-10-24T20:16:06.567Z,3.63
2022-10-24T20:18:35.240Z,3.15
2022-10-24T20:21:04.162Z,2.65
2022-10-24T20:23:31.622Z,3.30
2022-10-24T20:26:00.350Z,3.35
2022-10-24T20:28:27.537Z,3.33
2022-10-24T20:30:54.864Z,3.53
2022-10-24T20:33:22.445Z,3.20
2022-10-24T20:35:49.619Z,3.03
2022-10-24T20:38:16.764Z,2.90
2022-10-24T20:40:43.949Z,3.45
2022-10-24T20:43:11.115Z,3.30
2022-10-24T20:45:41.564Z,3.10
2022-10-24T20:48:09.069Z,4.05
2022-10-24T20:50:36.452Z,5.00
2022-10-24T20:53:04.133Z,4.20
2022-10-24T20:55:43.904Z,2.97
2022-10-24T20:58:14.216Z,4.32
2022-10-24T21:03:15.238Z,4.07
2022-10-24T21:05:42.468Z,3.33
2022-10-24T21:08:09.684Z,3.28
2022-10-24T21:10:36.829Z,3.75
2022-10-24T21:13:04.103Z,2.92
2022-10-24T21:15:31.370Z,3.13
2022-10-24T21:17:58.517Z,3.00
2022-10-24T21:20:25.667Z,3.53
2022-10-24T21:22:52.797Z,3.03
2022-10-24T21:25:19.996Z,3.53
2022-10-24T21:27:47.419Z,3.75
2022-10-24T21:30:15.063Z,4.18
2022-10-24T21:32:42.411Z,2.95
2022-10-24T21:35:09.597Z,3.58
2022-10-24T21:37:36.866Z,3.45
2022-10-24T21:40:04.181Z,4.10
2022-10-24T21:42:33.149Z,3.53
2022-10-24T21:45:00.596Z,3.65
2022-10-24T21:47:28.456Z,3.33
2022-10-24T21:49:55.617Z,3.72
2022-10-24T21:52:22.782Z,3.35
2022-10-24T21:54:50.033Z,3.63
2022-10-24T21:57:17.180Z,3.53
2022-10-24T21:59:44.313Z,4.18
2022-10-24T22:02:11.702Z,3.53
2022-10-24T22:04:38.946Z,4.10
2022-10-24T22:07:07.225Z,4.32
2022-10-24T22:09:34.459Z,3.80
2022-10-24T22:12:01.632Z,4.35
2022-10-24T22:14:28.754Z,4.28
2022-10-24T22:16:56.092Z,3.38
2022-10-24T22:19:23.259Z,4.63
2022-10-24T22:21:51.284Z,5.38
2022-10-24T22:24:19.722Z,3.63
2022-10-24T22:26:46.972Z,5.00
2022-10-24T22:29:15.498Z,4.80
2022-10-24T22:31:42.913Z,5.32
2022-10-24T22:34:11.717Z,4.63
2022-10-24T22:36:41.877Z,4.85
2022-10-24T22:39:16.295Z,5.38
2022-10-24T22:41:44.005Z,4.97
2022-10-24T22:44:11.847Z,5.68
2022-10-24T22:46:57.400Z,5.47
2022-10-24T22:49:43.076Z,6.47
2022-10-24T22:52:11.395Z,5.82
2022-10-24T22:54:38.833Z,6.32
2022-10-24T22:57:06.343Z,5.63
2022-10-24T22:59:34.210Z,6.70
2022-10-24T23:02:04.463Z,6.55
2022-10-24T23:04:50.244Z,6.70
2022-10-24T23:07:27.588Z,6.90
2022-10-24T23:09:55.289Z,6.13
2022-10-24T23:12:23.015Z,6.57
2022-10-24T23:14:50.599Z,6.68
2022-10-24T23:17:27.908Z,6.88
2022-10-24T23:19:55.519Z,7.43
2022-10-24T23:22:22.767Z,6.90
2022-10-24T23:24:51.081Z,8.05
2022-10-24T23:27:34.259Z,8.23
2022-10-24T23:30:05.908Z,7.88
2022-10-24T23:32:34.532Z,8.57
2022-10-24T23:35:01.837Z,9.50
2022-10-24T23:37:28.954Z,8.65
2022-10-24T23:39:56.721Z,8.65
2022-10-24T23:42:23.986Z,9.25
2022-10-24T23:44:51.290Z,9.55
2022-10-24T23:47:30.271Z,9.65
2022-10-24T23:50:16.114Z,10.05
2022-10-24T23:55:12.685Z,11.25
2022-10-24T23:57:39.833Z,12.18
